Terminal Aerodrome Forecast
Issued by NWS

Home | Current Version | Previous Version | Text Only | Print | Product List | Glossary On
Versions: 1 2 3 4 5 6 7 8 9 10 11 12 13 14 15 16 17 18 19 20 21 22 23 24 25 26 27 28 29 30 31 32
000
FTUS45 KTWC 011100
TAFOLS
TAF
KOLS 011120Z 0112/0212 23005KT P6SM OVC100
     FM011500 VRB05KT P6SM BKN120
     FM011900 24005KT P6SM VCSH SCT090 BKN200
     FM012100 26008KT P6SM VCTS SCT090CB BKN200
      TEMPO 0121/0123 VRB15G35KT BKN070CB
     FM012300 25007KT P6SM VCSH SCT040 BKN070
     FM020600 VRB03KT P6SM FEW040 BKN090=

USA.gov is the U.S. government's official web portal to all federal, state and local government web resources and services.